Registration

All data are given in time UTC except for the places where it is expressly stated to the contrary, The data provided on this website are informative!!!


Actual Weather
 
General weather forecast

Fog is forecasted with visibility limits from 600 m down to 200 m.
lubuzachFOG (st.1)Restriction in air transport.
Weather - Poland
7°C Szczecin 10°C Suwałki 12°C Warszawa 12°C Poznan
13°C Opole 12°C Kraków 12°C Rzeszów
More cities in Poland

Weather - Europe
10°C Berlin 15°C Paryz 14°C Bruksela 12°C Oslo
8°C Praga 12°C Zagrzeb
More cities in Europe

METAR EPCE 300130Z VRB02KT 0800 FG OVC002 13/13 Q1016 RMK 130 100 8/8=
METAR EPDA 300130Z 08002KT 0500 FG FEW063 BKN/// 10/09 Q1016 RMK 098 097 5/2=
METAR EPDE 300130Z 30004KT 9999 BKN090 12/11 Q1010 RMK 115 095 7/7=
METAR EPIR 300130Z AUTO 34006KT ///098 ///112 12/11 Q1014 RMK 124 091 ///=
METAR EPKS 300130Z 33006KT 9999 OVC032 13/13 Q1015 RMK 128 099 8/8=
METAR EPLK 300130Z 36005KT 330V030 6000 BKN006 OVC010 12/12 Q1013 RMK 123 100 8/5=
METAR EPLY 300130Z AUTO 33002KT ///113 ///121 12/12 Q1013 RMK 122 097 ///=
METAR EPMB 300030Z 33005KT 9999 SCT066 OVC100 15/13 Q1016 RMK 145 093 8/4=
METAR EPMI 300030Z 01003KT 350V050 8000 BKN040 13/12 Q1016 RMK 125 095 5/5=
METAR EPMM 300130Z 02006KT 9999 BKN100 BKN200 10/09 Q1012 RMK 104 090 6/5=
METAR EPOK 300130Z 34003KT 9999 OVC055 15/14 Q1016 RMK 145 097 8/8=
METAR EPPR 300130Z AUTO 31004KT VV175 14/12 Q1016 RMK 140 086 ///=
METAR EPPW 300130Z 02006KT 7000 FEW006 BKN024 OVC070 13/13 Q1014 RMK 128 099 8/2=
METAR COR EPSN 300130Z 35002KT 0500 R29/0550N FG BKN002 09/09 Q1016 RMK 087 100 7/7=
METAR EPTM 300100Z AUTO 33006KT VV006 11/10 Q1012 RMK 112 093 ///=


 

Copyright©2007 HS-PAF All rights reserved.